Terminal Aerodrome Forecast
Issued by NWS Boston, MA

Home | Current Version | Previous Version | Text Only | Print | Product List | Glossary On
Versions: 1 2 3 4 5 6 7 8 9 10 11 12 13 14 15 16 17 18 19 20 21 22 23 24 25
000
FTUS41 KBOX 301124
TAFBOS
TAF
KBOS 301124Z 3012/0118 36010KT P6SM FEW250
     FM301400 06008KT P6SM SCT250
     FM301600 09012KT P6SM BKN250
     FM010600 16005KT P6SM -DZ VCSH OVC025
     FM010900 14005KT P6SM -DZ VCSH OVC015
     FM011100 14005KT P6SM -DZ OVC008
     FM011400 12005KT P6SM OVC008
     FM011700 14006KT P6SM BKN020=

USA.gov is the U.S. government's official web portal to all federal, state and local government web resources and services.